createdAt,value
2018-06-13T00:01:47.321Z,16.00
2018-06-13T00:07:16.912Z,16.00
2018-06-13T00:12:46.462Z,16.00
2018-06-13T00:18:16.006Z,16.00
2018-06-13T00:23:48.607Z,15.90
2018-06-13T00:29:18.110Z,15.90
2018-06-13T00:34:48.081Z,15.90
2018-06-13T00:40:17.337Z,15.90
2018-06-13T00:45:47.118Z,15.80
2018-06-13T00:51:17.669Z,15.70
2018-06-13T00:56:50.224Z,15.70
2018-06-13T01:02:19.824Z,15.70
2018-06-13T01:07:49.476Z,15.70
2018-06-13T01:13:18.897Z,15.70
2018-06-13T01:18:48.467Z,15.60
2018-06-13T01:24:20.760Z,15.60
2018-06-13T01:29:50.296Z,15.60
2018-06-13T01:35:19.778Z,15.60
2018-06-13T01:40:49.341Z,15.60
2018-06-13T01:46:18.981Z,15.60
2018-06-13T01:51:48.502Z,15.60
2018-06-13T01:57:18.362Z,15.60
2018-06-13T02:02:48.232Z,15.60
2018-06-13T02:08:18.088Z,15.60
2018-06-13T02:13:48.753Z,15.60
2018-06-13T02:19:18.615Z,15.60
2018-06-13T02:24:48.494Z,15.60
2018-06-13T02:30:18.254Z,15.60
2018-06-13T02:35:47.857Z,15.50
2018-06-13T02:41:17.947Z,15.50
2018-06-13T02:46:50.227Z,15.50
2018-06-13T02:52:23.784Z,15.50
2018-06-13T02:57:54.695Z,15.50
2018-06-13T03:03:37.710Z,15.50
2018-06-13T03:14:52.917Z,15.50
2018-06-13T03:20:24.183Z,15.60
2018-06-13T03:25:57.524Z,15.60
2018-06-13T03:31:27.196Z,15.60
2018-06-13T03:37:06.412Z,15.60
2018-06-13T03:42:36.024Z,15.60
2018-06-13T03:48:06.357Z,15.60
2018-06-13T03:53:35.572Z,15.60
2018-06-13T03:59:04.874Z,15.70
2018-06-13T04:04:34.080Z,15.70
2018-06-13T04:10:03.343Z,15.70
2018-06-13T04:15:32.596Z,15.70
2018-06-13T04:21:01.965Z,15.80
2018-06-13T04:26:31.680Z,15.80
2018-06-13T04:32:15.357Z,15.80
2018-06-13T04:37:50.517Z,15.80
2018-06-13T04:43:23.435Z,15.70
2018-06-13T04:49:02.365Z,15.60
2018-06-13T04:54:33.384Z,15.50
2018-06-13T05:00:03.895Z,15.40
2018-06-13T05:05:33.770Z,15.40
2018-06-13T05:11:19.086Z,15.30
2018-06-13T05:16:51.247Z,15.20
2018-06-13T05:22:21.308Z,15.10
2018-06-13T05:28:13.316Z,15.10
2018-06-13T05:33:43.351Z,15.00
2018-06-13T05:39:16.151Z,14.90
2018-06-13T05:50:31.185Z,14.70
2018-06-13T05:56:00.620Z,14.70
2018-06-13T06:01:32.365Z,14.60
2018-06-13T06:07:01.658Z,14.60
2018-06-13T06:12:30.880Z,14.60
2018-06-13T06:18:00.544Z,14.60
2018-06-13T06:23:30.035Z,14.60
2018-06-13T06:28:59.807Z,14.50
2018-06-13T06:34:30.567Z,14.40
2018-06-13T06:39:59.912Z,14.40
2018-06-13T06:45:29.252Z,14.30
2018-06-13T06:50:58.990Z,14.20
2018-06-13T06:56:30.360Z,14.10
2018-06-13T07:01:59.583Z,14.00
2018-06-13T07:07:28.803Z,13.90
2018-06-13T07:12:58.046Z,13.90
2018-06-13T07:18:27.602Z,13.80
2018-06-13T07:23:57.349Z,13.70
2018-06-13T07:29:28.074Z,13.60
2018-06-13T07:34:57.940Z,13.60
2018-06-13T07:40:27.149Z,13.60
2018-06-13T07:45:56.483Z,13.50
2018-06-13T07:51:25.755Z,13.50
2018-06-13T07:56:55.992Z,13.40
2018-06-13T08:02:27.213Z,13.30
2018-06-13T08:07:56.959Z,13.20
2018-06-13T08:13:28.012Z,13.10
2018-06-13T08:18:57.798Z,13.10
2018-06-13T08:24:27.142Z,13.00
2018-06-13T08:29:56.519Z,13.00
2018-06-13T08:35:27.579Z,12.90
2018-06-13T08:40:58.295Z,12.90
2018-06-13T08:46:27.507Z,12.90
2018-06-13T08:51:57.419Z,12.90
2018-06-13T08:57:26.896Z,12.90
2018-06-13T09:02:56.174Z,12.90
2018-06-13T09:08:25.540Z,12.90
2018-06-13T09:13:54.876Z,12.90
2018-06-13T09:19:24.141Z,12.90
2018-06-13T09:24:54.650Z,12.90
2018-06-13T09:30:25.391Z,12.90
2018-06-13T09:35:57.099Z,12.90
2018-06-13T09:41:26.432Z,12.90
2018-06-13T09:46:56.703Z,12.90
2018-06-13T09:52:27.740Z,12.90
2018-06-13T09:57:58.690Z,12.90
2018-06-13T10:03:27.906Z,13.00
2018-06-13T10:08:57.106Z,13.00
2018-06-13T10:14:26.336Z,13.00
2018-06-13T10:19:57.561Z,13.00
2018-06-13T10:25:26.804Z,12.90
2018-06-13T10:31:02.108Z,13.00
2018-06-13T10:36:31.354Z,12.90
2018-06-13T10:42:01.125Z,12.90
2018-06-13T10:47:30.296Z,13.00
2018-06-13T10:52:59.537Z,13.00
2018-06-13T10:58:28.780Z,13.00
2018-06-13T11:03:58.352Z,13.00
2018-06-13T11:09:27.533Z,13.00
2018-06-13T11:14:56.762Z,13.00
2018-06-13T11:20:26.069Z,12.90
2018-06-13T11:25:57.353Z,13.00
2018-06-13T11:31:26.594Z,12.90
2018-06-13T11:36:55.989Z,13.00
2018-06-13T11:42:25.464Z,13.00
2018-06-13T11:47:54.712Z,13.00
2018-06-13T11:53:24.691Z,13.10
2018-06-13T11:58:55.917Z,13.10
2018-06-13T12:04:26.841Z,13.10
2018-06-13T12:09:57.853Z,13.20
2018-06-13T12:15:35.821Z,13.20
2018-06-13T12:21:05.042Z,13.20
2018-06-13T12:26:34.255Z,13.20
2018-06-13T12:32:03.200Z,13.20
2018-06-13T12:37:32.405Z,13.20
2018-06-13T12:43:01.612Z,13.20
2018-06-13T12:48:30.775Z,13.30
2018-06-13T12:54:00.396Z,13.20
2018-06-13T12:59:29.697Z,13.20
2018-06-13T13:04:58.941Z,13.10
2018-06-13T13:10:29.430Z,13.10
2018-06-13T13:15:58.676Z,13.20
2018-06-13T13:21:28.325Z,13.20
2018-06-13T13:26:57.615Z,13.20
2018-06-13T13:32:45.203Z,13.20
2018-06-13T13:38:21.337Z,13.20
2018-06-13T13:43:57.899Z,13.30
2018-06-13T13:49:30.971Z,13.30
2018-06-13T13:55:00.174Z,13.40
2018-06-13T14:00:49.399Z,13.40
2018-06-13T14:06:21.307Z,13.40
2018-06-13T14:11:51.231Z,13.40
2018-06-13T14:17:23.236Z,13.40
2018-06-13T14:22:54.099Z,13.40
2018-06-13T14:28:25.487Z,13.30
2018-06-13T14:33:56.536Z,13.30
2018-06-13T14:39:26.998Z,13.30
2018-06-13T14:44:56.167Z,13.30
2018-06-13T14:50:25.870Z,13.30
2018-06-13T14:56:00.293Z,13.30
2018-06-13T15:01:29.995Z,13.30
2018-06-13T15:06:59.196Z,13.30
2018-06-13T15:12:28.827Z,13.40
2018-06-13T15:17:58.059Z,13.30
2018-06-13T15:23:27.617Z,13.30
2018-06-13T15:28:58.958Z,13.30
2018-06-13T15:34:28.207Z,13.20
2018-06-13T15:39:57.456Z,13.10
2018-06-13T15:45:26.752Z,13.00
2018-06-13T15:50:56.136Z,13.00
2018-06-13T15:56:32.844Z,12.90
2018-06-13T16:02:02.315Z,12.80
2018-06-13T16:07:31.613Z,12.70
2018-06-13T16:13:00.821Z,12.70
2018-06-13T16:18:30.081Z,12.60
2018-06-13T16:23:59.436Z,12.60
2018-06-13T16:29:28.731Z,12.60
2018-06-13T16:34:58.451Z,12.60
2018-06-13T16:40:28.986Z,12.60
2018-06-13T16:46:00.344Z,12.50
2018-06-13T16:51:46.679Z,12.50
2018-06-13T16:57:17.877Z,12.50
2018-06-13T17:02:57.785Z,12.50
2018-06-13T17:08:27.115Z,12.50
2018-06-13T17:13:56.446Z,12.50
2018-06-13T17:19:26.574Z,12.60
2018-06-13T17:24:56.704Z,12.60
2018-06-13T17:30:28.053Z,12.70
2018-06-13T17:35:57.844Z,12.70
2018-06-13T17:41:27.230Z,12.70
2018-06-13T17:46:58.793Z,12.70
2018-06-13T17:52:28.158Z,12.60
2018-06-13T17:57:57.653Z,12.60
2018-06-13T18:03:28.017Z,12.60
2018-06-13T18:08:59.393Z,12.50
2018-06-13T18:14:28.803Z,12.50
2018-06-13T18:19:58.157Z,12.50
2018-06-13T18:25:27.558Z,12.50
2018-06-13T18:30:58.007Z,12.50
2018-06-13T18:36:27.487Z,12.50
2018-06-13T18:41:56.860Z,12.50
2018-06-13T18:47:26.287Z,12.50
2018-06-13T18:52:55.681Z,12.60
2018-06-13T18:58:27.263Z,12.50
2018-06-13T19:03:56.727Z,12.60
2018-06-13T19:09:25.976Z,12.60
2018-06-13T19:14:56.389Z,12.60
2018-06-13T19:20:25.739Z,12.60
2018-06-13T19:26:58.536Z,12.60
2018-06-13T19:32:29.848Z,12.60
2018-06-13T19:37:59.254Z,12.60
2018-06-13T19:43:33.705Z,12.60
2018-06-13T19:49:03.571Z,12.60
2018-06-13T19:54:38.089Z,12.60
2018-06-13T20:00:07.479Z,12.60
2018-06-13T20:05:42.568Z,12.60
2018-06-13T20:11:15.383Z,12.60
2018-06-13T20:16:53.772Z,12.60
2018-06-13T20:22:24.478Z,12.60
2018-06-13T20:27:59.683Z,12.60
2018-06-13T20:33:29.017Z,12.60
2018-06-13T20:38:58.401Z,12.60
2018-06-13T20:44:27.787Z,12.60
2018-06-13T20:49:57.263Z,12.70
2018-06-13T20:55:26.618Z,12.70
2018-06-13T21:00:57.017Z,12.70
2018-06-13T21:06:26.788Z,12.70
2018-06-13T21:11:56.127Z,12.70
2018-06-13T21:17:25.695Z,12.70
2018-06-13T21:22:55.387Z,12.60
2018-06-13T21:28:26.131Z,12.70
2018-06-13T21:33:55.894Z,12.70
2018-06-13T21:39:25.741Z,12.70
2018-06-13T21:44:55.389Z,12.70
2018-06-13T21:50:25.938Z,12.70
2018-06-13T21:55:55.821Z,12.70
2018-06-13T22:01:25.606Z,13.20
2018-06-13T22:06:55.071Z,13.00
2018-06-13T22:12:25.459Z,12.90
2018-06-13T22:17:57.492Z,12.80
2018-06-13T22:23:26.693Z,12.80
2018-06-13T22:28:56.076Z,12.80
2018-06-13T22:34:25.668Z,12.80
2018-06-13T22:39:55.264Z,12.80
2018-06-13T22:45:25.169Z,12.70
2018-06-13T22:50:54.986Z,12.70
2018-06-13T22:56:25.155Z,12.70
2018-06-13T23:01:55.027Z,12.70
2018-06-13T23:07:25.061Z,12.70
2018-06-13T23:12:56.980Z,12.70
2018-06-13T23:18:29.128Z,12.60
2018-06-13T23:23:58.390Z,12.60
2018-06-13T23:29:27.652Z,12.60
2018-06-13T23:34:56.841Z,12.60
2018-06-13T23:40:26.291Z,12.60
2018-06-13T23:45:55.535Z,12.60
2018-06-13T23:51:25.607Z,12.60
2018-06-13T23:56:55.140Z,12.60
